createdAt,value
2019-05-22T00:02:19.408Z,31.00
2019-05-22T00:05:01.585Z,29.77
2019-05-22T00:07:33.639Z,34.83
2019-05-22T00:10:04.177Z,29.32
2019-05-22T00:12:46.040Z,37.30
2019-05-22T00:15:10.501Z,35.92
2019-05-22T00:17:41.131Z,36.28
2019-05-22T00:20:14.419Z,37.28
2019-05-22T00:22:47.377Z,35.58
2019-05-22T00:25:21.017Z,38.60
2019-05-22T00:27:54.652Z,35.00
2019-05-22T00:30:27.489Z,36.17
2019-05-22T00:33:01.219Z,28.50
2019-05-22T00:35:32.269Z,33.65
2019-05-22T00:38:05.783Z,33.00
2019-05-22T00:40:42.414Z,58.60
2019-05-22T00:43:17.081Z,59.88
2019-05-22T00:45:50.154Z,53.42
2019-05-22T00:48:23.956Z,57.23
2019-05-22T00:51:10.867Z,59.42
2019-05-22T00:54:00.155Z,72.72
2019-05-22T00:56:36.866Z,81.08
2019-05-22T00:59:17.508Z,93.15
2019-05-22T01:01:53.088Z,96.60
2019-05-22T01:04:29.987Z,89.65
2019-05-22T01:07:01.165Z,89.30
2019-05-22T01:09:37.912Z,99.15
2019-05-22T01:12:17.259Z,98.45
2019-05-22T01:14:50.488Z,91.92
2019-05-22T01:17:22.386Z,83.95
2019-05-22T01:19:56.290Z,80.62
2019-05-22T01:22:28.828Z,76.00
2019-05-22T01:25:00.753Z,72.00
2019-05-22T01:27:32.617Z,70.75
2019-05-22T01:30:04.620Z,74.07
2019-05-22T01:32:45.521Z,73.57
2019-05-22T01:35:16.887Z,66.22
2019-05-22T01:37:47.776Z,70.20
2019-05-22T01:40:37.337Z,68.87
2019-05-22T01:43:11.974Z,69.35
2019-05-22T01:45:52.644Z,61.40
2019-05-22T01:48:30.491Z,61.35
2019-05-22T01:51:02.647Z,65.12
2019-05-22T01:53:38.560Z,66.65
2019-05-22T01:56:12.856Z,61.92
2019-05-22T01:58:43.780Z,57.27
2019-05-22T02:01:17.474Z,57.20
2019-05-22T02:03:48.109Z,58.58
2019-05-22T02:06:21.899Z,59.70
2019-05-22T02:09:24.093Z,60.60
2019-05-22T02:12:08.157Z,60.45
2019-05-22T02:14:43.584Z,62.30
2019-05-22T02:17:15.914Z,72.12
2019-05-22T02:19:46.688Z,68.25
2019-05-22T02:22:17.315Z,67.22
2019-05-22T02:24:52.163Z,73.70
2019-05-22T02:27:24.215Z,74.35
2019-05-22T02:29:55.633Z,71.75
2019-05-22T02:32:27.620Z,79.15
2019-05-22T02:34:58.375Z,78.42
2019-05-22T02:37:30.547Z,71.17
2019-05-22T02:40:01.490Z,76.90
2019-05-22T02:42:33.403Z,73.62
2019-05-22T02:45:05.197Z,71.82
2019-05-22T02:47:37.450Z,79.00
2019-05-22T02:50:08.856Z,72.47
2019-05-22T02:52:39.283Z,72.72
2019-05-22T02:55:11.239Z,79.97
2019-05-22T02:57:41.870Z,79.82
2019-05-22T03:00:14.761Z,76.72
2019-05-22T03:02:55.637Z,81.67
2019-05-22T03:05:27.216Z,76.07
2019-05-22T03:07:58.813Z,74.05
2019-05-22T03:10:29.705Z,79.42
2019-05-22T03:13:00.043Z,70.78
2019-05-22T03:15:31.761Z,64.07
2019-05-22T03:18:05.397Z,65.85
2019-05-22T03:20:37.479Z,76.37
2019-05-22T03:23:40.495Z,71.35
2019-05-22T03:26:13.523Z,69.65
2019-05-22T03:28:45.966Z,73.65
2019-05-22T03:31:18.778Z,69.37
2019-05-22T03:33:49.860Z,37.75
2019-05-22T03:36:21.582Z,43.05
2019-05-22T03:38:53.064Z,50.92
2019-05-22T03:41:24.291Z,68.28
2019-05-22T03:43:56.089Z,66.00
2019-05-22T03:46:35.980Z,73.95
2019-05-22T03:49:27.515Z,68.47
2019-05-22T03:51:40.985Z,75.70
2019-05-22T03:54:13.001Z,81.70
2019-05-22T03:56:43.948Z,80.87
2019-05-22T03:59:15.686Z,71.10
2019-05-22T04:01:46.833Z,55.65
2019-05-22T04:04:36.646Z,62.98
2019-05-22T04:07:11.589Z,65.52
2019-05-22T04:09:44.947Z,64.85
2019-05-22T04:12:15.478Z,61.83
2019-05-22T04:14:47.219Z,62.98
2019-05-22T04:17:19.243Z,49.00
2019-05-22T04:19:51.824Z,52.90
2019-05-22T04:22:22.966Z,58.60
2019-05-22T04:24:53.597Z,56.80
2019-05-22T04:27:24.880Z,84.75
2019-05-22T04:29:56.497Z,77.40
2019-05-22T04:32:33.306Z,69.50
2019-05-22T04:35:06.569Z,72.55
2019-05-22T04:37:38.923Z,89.47
2019-05-22T04:40:50.052Z,68.28
2019-05-22T04:43:23.695Z,85.17
2019-05-22T04:45:57.111Z,80.40
2019-05-22T04:48:31.781Z,74.42
2019-05-22T04:51:41.142Z,77.53
2019-05-22T04:54:11.597Z,70.00
2019-05-22T04:56:42.202Z,75.20
2019-05-22T04:59:14.041Z,75.20
2019-05-22T05:01:45.586Z,93.52
2019-05-22T05:04:17.542Z,97.78
2019-05-22T05:06:50.017Z,96.02
2019-05-22T05:09:20.699Z,95.70
2019-05-22T05:11:51.291Z,99.20
2019-05-22T05:14:21.814Z,100.25
2019-05-22T05:16:52.611Z,103.55
2019-05-22T05:19:23.196Z,99.40
2019-05-22T05:21:53.848Z,100.72
2019-05-22T05:24:24.752Z,96.15
2019-05-22T05:26:55.705Z,103.90
2019-05-22T05:29:32.420Z,103.07
2019-05-22T05:32:03.909Z,109.17
2019-05-22T05:34:53.468Z,116.25
2019-05-22T05:37:25.206Z,117.20
2019-05-22T05:40:40.458Z,122.35
2019-05-22T05:43:18.883Z,124.85
2019-05-22T05:45:51.358Z,148.35
2019-05-22T05:48:26.037Z,147.37
2019-05-22T05:51:39.543Z,146.05
2019-05-22T05:54:15.306Z,156.47
2019-05-22T05:56:50.021Z,148.78
2019-05-22T05:59:22.871Z,155.27
2019-05-22T06:01:56.060Z,156.82
2019-05-22T06:04:35.097Z,144.47
2019-05-22T06:07:23.463Z,137.90
2019-05-22T06:10:55.379Z,142.07
2019-05-22T06:13:26.761Z,144.97
2019-05-22T06:17:12.468Z,139.05
2019-05-22T06:19:47.988Z,123.40
2019-05-22T06:22:20.280Z,129.97
2019-05-22T06:25:04.120Z,124.87
2019-05-22T06:27:42.071Z,126.35
2019-05-22T06:30:17.989Z,145.32
2019-05-22T06:33:37.539Z,133.78
2019-05-22T06:36:17.667Z,161.60
2019-05-22T06:39:03.445Z,161.07
2019-05-22T06:41:39.503Z,148.82
2019-05-22T06:44:41.748Z,142.95
2019-05-22T06:47:20.917Z,134.43
2019-05-22T06:50:00.564Z,125.02
2019-05-22T06:52:31.516Z,122.22
2019-05-22T06:55:02.001Z,126.30
2019-05-22T06:57:35.391Z,117.15
2019-05-22T07:00:18.382Z,119.50
2019-05-22T07:02:48.837Z,105.40
2019-05-22T07:05:19.643Z,123.20
2019-05-22T07:07:50.654Z,127.78
2019-05-22T07:10:22.208Z,115.65
2019-05-22T07:12:52.724Z,115.52
2019-05-22T07:15:39.938Z,111.28
2019-05-22T07:18:13.261Z,111.25
2019-05-22T07:20:44.571Z,116.25
2019-05-22T07:23:20.689Z,117.53
2019-05-22T07:25:51.746Z,116.42
2019-05-22T07:28:25.058Z,115.55
2019-05-22T07:30:56.886Z,114.72
2019-05-22T07:33:27.314Z,120.53
2019-05-22T07:36:09.450Z,113.65
2019-05-22T07:38:30.755Z,116.10
2019-05-22T07:41:01.866Z,102.67
2019-05-22T07:43:32.585Z,103.02
2019-05-22T07:46:03.078Z,103.02
2019-05-22T07:48:33.600Z,110.37
2019-05-22T07:51:06.051Z,113.08
2019-05-22T07:53:36.628Z,113.95
2019-05-22T07:56:12.018Z,108.80
2019-05-22T07:58:44.649Z,113.08
2019-05-22T08:01:17.591Z,96.80
2019-05-22T08:03:48.743Z,99.87
2019-05-22T08:06:20.110Z,104.23
2019-05-22T08:08:54.359Z,112.77
2019-05-22T08:11:27.550Z,92.10
2019-05-22T08:13:59.404Z,107.55
2019-05-22T08:16:29.939Z,96.35
2019-05-22T08:19:00.578Z,101.87
2019-05-22T08:21:30.972Z,115.37
2019-05-22T08:24:01.699Z,102.05
2019-05-22T08:26:33.896Z,92.10
2019-05-22T08:29:06.322Z,85.07
2019-05-22T08:31:37.961Z,76.20
2019-05-22T08:34:09.466Z,72.75
2019-05-22T08:36:41.403Z,71.90
2019-05-22T08:39:13.024Z,60.88
2019-05-22T08:41:44.909Z,46.40
2019-05-22T08:44:17.726Z,57.48
2019-05-22T08:46:49.285Z,44.90
2019-05-22T08:49:20.425Z,45.48
2019-05-22T08:51:51.037Z,40.88
2019-05-22T08:54:22.130Z,46.95
2019-05-22T08:56:52.749Z,43.40
2019-05-22T08:59:24.988Z,39.33
2019-05-22T09:01:55.485Z,41.00
2019-05-22T09:04:26.038Z,39.30
2019-05-22T09:06:56.583Z,36.85
2019-05-22T09:09:27.653Z,33.08
2019-05-22T09:11:58.319Z,33.05
2019-05-22T09:14:29.016Z,34.75
2019-05-22T09:16:59.553Z,28.87
2019-05-22T09:19:29.882Z,26.35
2019-05-22T09:22:01.277Z,29.55
2019-05-22T09:24:33.519Z,25.90
2019-05-22T09:27:04.855Z,23.75
2019-05-22T09:29:35.707Z,20.62
2019-05-22T09:32:07.479Z,24.40
2019-05-22T09:34:38.526Z,25.68
2019-05-22T09:37:10.045Z,21.25
2019-05-22T09:39:40.379Z,25.82
2019-05-22T09:42:10.806Z,23.22
2019-05-22T09:44:41.868Z,22.25
2019-05-22T09:47:12.993Z,21.42
2019-05-22T09:49:43.366Z,22.70
2019-05-22T09:52:14.495Z,21.93
2019-05-22T09:54:44.825Z,23.90
2019-05-22T09:57:15.529Z,25.35
2019-05-22T09:59:46.026Z,22.15
2019-05-22T10:02:16.552Z,22.17
2019-05-22T10:04:46.875Z,21.48
2019-05-22T10:07:18.472Z,22.45
2019-05-22T10:09:49.004Z,22.65
2019-05-22T10:12:19.567Z,19.55
2019-05-22T10:14:50.133Z,22.58
2019-05-22T10:17:20.793Z,22.77
2019-05-22T10:19:51.815Z,22.73
2019-05-22T10:22:22.518Z,20.40
2019-05-22T10:25:11.965Z,23.20
2019-05-22T10:27:26.389Z,24.00
2019-05-22T10:29:57.635Z,23.98
2019-05-22T10:32:32.059Z,24.37
2019-05-22T10:35:02.614Z,27.05
2019-05-22T10:37:33.575Z,25.43
2019-05-22T10:40:04.720Z,27.30
2019-05-22T10:42:35.510Z,26.95
2019-05-22T10:45:06.633Z,26.17
2019-05-22T10:47:37.481Z,27.05
2019-05-22T10:50:08.797Z,29.92
2019-05-22T10:52:39.550Z,33.65
2019-05-22T10:55:12.699Z,29.85
2019-05-22T10:57:44.104Z,25.68
2019-05-22T11:00:18.456Z,30.27
2019-05-22T11:02:49.174Z,32.58
2019-05-22T11:05:22.610Z,29.67
2019-05-22T11:07:53.429Z,28.07
2019-05-22T11:10:26.830Z,25.90
2019-05-22T11:12:57.425Z,33.25
2019-05-22T11:15:27.941Z,27.62
2019-05-22T11:17:59.174Z,22.05
2019-05-22T11:20:30.990Z,24.90
2019-05-22T11:23:02.105Z,22.55
2019-05-22T11:25:32.593Z,26.52
2019-05-22T11:28:03.902Z,26.97
2019-05-22T11:30:35.985Z,19.98
2019-05-22T11:33:06.461Z,26.37
2019-05-22T11:35:37.858Z,24.65
2019-05-22T11:38:08.992Z,19.48
2019-05-22T11:40:40.532Z,16.32
2019-05-22T11:43:13.244Z,14.00
2019-05-22T11:45:45.580Z,11.38
2019-05-22T11:48:16.689Z,11.05
2019-05-22T11:50:47.763Z,11.00
2019-05-22T11:53:18.212Z,6.90
2019-05-22T11:55:48.855Z,11.78
2019-05-22T11:58:19.329Z,9.13
2019-05-22T12:00:50.072Z,10.95
2019-05-22T12:03:21.350Z,10.13
2019-05-22T12:05:52.604Z,10.40
2019-05-22T12:08:23.925Z,10.43
2019-05-22T12:10:54.362Z,7.67
2019-05-22T12:13:26.023Z,7.72
2019-05-22T12:15:58.067Z,7.65
2019-05-22T12:18:31.001Z,6.70
2019-05-22T12:21:01.819Z,5.97
2019-05-22T12:23:33.653Z,5.12
2019-05-22T12:26:04.005Z,4.20
2019-05-22T12:28:34.744Z,3.60
2019-05-22T12:31:06.264Z,3.27
2019-05-22T12:33:36.697Z,5.75
2019-05-22T12:36:12.160Z,5.47
2019-05-22T12:38:43.111Z,3.72
2019-05-22T12:41:14.897Z,3.10
2019-05-22T12:43:45.410Z,4.25
2019-05-22T12:46:16.872Z,4.40
2019-05-22T12:48:47.643Z,3.37
2019-05-22T12:51:18.050Z,7.87
2019-05-22T12:53:51.807Z,6.20
2019-05-22T12:56:22.582Z,3.90
2019-05-22T12:58:55.124Z,6.55
2019-05-22T13:01:26.783Z,6.62
2019-05-22T13:03:59.411Z,9.10
2019-05-22T13:06:30.811Z,6.70
2019-05-22T13:09:02.254Z,6.25
2019-05-22T13:11:34.157Z,7.53
2019-05-22T13:14:04.655Z,6.50
2019-05-22T13:16:35.190Z,6.40
2019-05-22T13:19:06.101Z,5.90
2019-05-22T13:21:38.018Z,3.40
2019-05-22T13:24:20.123Z,3.35
2019-05-22T13:26:52.238Z,7.37
2019-05-22T13:29:24.245Z,3.65
2019-05-22T13:31:56.272Z,3.72
2019-05-22T13:34:29.277Z,8.48
2019-05-22T13:37:00.809Z,2.85
2019-05-22T13:39:31.223Z,3.45
2019-05-22T13:42:01.678Z,2.58
2019-05-22T13:44:33.308Z,2.33
2019-05-22T13:47:05.566Z,1.70
2019-05-22T13:49:38.543Z,4.28
2019-05-22T13:52:10.446Z,3.75
2019-05-22T13:54:42.320Z,2.40
2019-05-22T13:57:13.269Z,5.50
2019-05-22T13:59:43.763Z,2.80
2019-05-22T14:02:14.332Z,1.37
2019-05-22T14:04:44.887Z,2.60
2019-05-22T14:07:16.063Z,4.85
2019-05-22T14:09:46.436Z,2.80
2019-05-22T14:12:16.870Z,5.37
2019-05-22T14:14:47.243Z,3.55
2019-05-22T14:17:17.602Z,6.22
2019-05-22T14:19:48.027Z,3.77
2019-05-22T14:22:18.516Z,8.68
2019-05-22T14:24:48.831Z,4.35
2019-05-22T14:27:19.403Z,4.35
2019-05-22T14:29:49.829Z,5.40
2019-05-22T14:32:20.539Z,4.35
2019-05-22T14:34:51.368Z,3.60
2019-05-22T14:37:22.484Z,2.67
2019-05-22T14:39:53.407Z,6.55
2019-05-22T14:42:24.312Z,3.85
2019-05-22T14:44:54.712Z,4.50
2019-05-22T14:47:25.162Z,3.58
2019-05-22T14:49:55.525Z,3.90
2019-05-22T14:52:25.933Z,2.45
2019-05-22T14:54:56.747Z,4.65
2019-05-22T14:57:27.760Z,2.27
2019-05-22T14:59:59.284Z,4.58
2019-05-22T15:02:30.206Z,2.72
2019-05-22T15:05:00.764Z,2.50
2019-05-22T15:07:32.637Z,2.05
2019-05-22T15:10:03.042Z,2.33
2019-05-22T15:12:33.590Z,2.58
2019-05-22T15:15:03.972Z,3.40
2019-05-22T15:17:34.358Z,2.87
2019-05-22T15:20:05.631Z,3.58
2019-05-22T15:22:37.335Z,1.57
2019-05-22T15:25:08.581Z,2.77
2019-05-22T15:27:39.215Z,3.65
2019-05-22T15:30:11.316Z,1.87
2019-05-22T15:32:42.785Z,4.17
2019-05-22T15:35:15.118Z,2.45
2019-05-22T15:37:46.685Z,2.33
2019-05-22T15:40:18.442Z,3.60
2019-05-22T15:42:49.852Z,3.15
2019-05-22T15:45:22.782Z,4.25
2019-05-22T15:47:57.524Z,5.00
2019-05-22T15:50:32.025Z,4.05
2019-05-22T15:53:11.078Z,3.37
2019-05-22T15:55:42.814Z,3.10
2019-05-22T15:58:17.364Z,2.30
2019-05-22T16:00:50.402Z,3.02
2019-05-22T16:03:24.540Z,3.15
2019-05-22T16:05:55.949Z,3.87
2019-05-22T16:08:26.944Z,2.98
2019-05-22T16:11:00.732Z,2.05
2019-05-22T16:13:34.950Z,4.78
2019-05-22T16:16:07.952Z,5.72
2019-05-22T16:18:38.940Z,5.40
2019-05-22T16:21:11.606Z,3.40
2019-05-22T16:23:43.200Z,3.50
2019-05-22T16:26:14.614Z,4.20
2019-05-22T16:28:47.179Z,2.75
2019-05-22T16:31:19.490Z,2.20
2019-05-22T16:33:51.757Z,7.03
2019-05-22T16:36:24.441Z,2.40
2019-05-22T16:38:55.242Z,4.58
2019-05-22T16:41:27.142Z,6.12
2019-05-22T16:43:57.692Z,7.33
2019-05-22T16:46:29.073Z,4.65
2019-05-22T16:49:00.003Z,2.55
2019-05-22T16:51:31.813Z,1.60
2019-05-22T16:54:08.386Z,3.75
2019-05-22T16:56:40.591Z,4.58
2019-05-22T16:59:13.429Z,4.10
2019-05-22T17:01:57.751Z,5.45
2019-05-22T17:04:17.279Z,4.08
2019-05-22T17:06:48.704Z,3.75
2019-05-22T17:09:21.293Z,3.00
2019-05-22T17:11:52.104Z,3.00
2019-05-22T17:14:23.649Z,3.05
2019-05-22T17:16:54.017Z,1.15
2019-05-22T17:19:27.623Z,4.83
2019-05-22T17:21:57.223Z,2.42
2019-05-22T17:24:28.175Z,2.62
2019-05-22T17:26:58.696Z,1.77
2019-05-22T17:29:30.354Z,2.55
2019-05-22T17:32:00.919Z,1.80
2019-05-22T17:34:32.315Z,5.08
2019-05-22T17:37:08.265Z,1.62
2019-05-22T17:39:41.738Z,8.23
2019-05-22T17:42:16.242Z,3.17
2019-05-22T17:44:49.577Z,4.22
2019-05-22T17:47:23.911Z,7.45
2019-05-22T17:49:55.399Z,4.25
2019-05-22T17:52:26.392Z,5.62
2019-05-22T17:54:57.182Z,2.98
2019-05-22T17:57:28.527Z,1.22
2019-05-22T17:59:59.611Z,1.60
2019-05-22T18:02:34.873Z,3.40
2019-05-22T18:05:08.049Z,1.42
2019-05-22T18:07:39.529Z,1.85
2019-05-22T18:10:12.334Z,3.33
2019-05-22T18:12:42.703Z,3.35
2019-05-22T18:15:15.931Z,1.10
2019-05-22T18:17:47.411Z,2.75
2019-05-22T18:20:19.836Z,6.05
2019-05-22T18:22:50.315Z,3.17
2019-05-22T18:25:22.477Z,2.37
2019-05-22T18:27:53.484Z,2.52
2019-05-22T18:30:24.325Z,4.62
2019-05-22T18:32:54.819Z,2.27
2019-05-22T18:35:25.689Z,6.78
2019-05-22T18:37:56.733Z,2.35
2019-05-22T18:40:27.074Z,3.52
2019-05-22T18:42:57.529Z,0.50
2019-05-22T18:45:28.808Z,1.52
2019-05-22T18:47:59.448Z,1.10
2019-05-22T18:50:30.308Z,2.95
2019-05-22T18:53:00.667Z,2.22
2019-05-22T18:55:31.074Z,3.67
2019-05-22T18:58:01.552Z,4.40
2019-05-22T19:00:33.207Z,3.45
2019-05-22T19:03:04.345Z,5.62
2019-05-22T19:05:36.111Z,3.25
2019-05-22T19:08:06.820Z,2.25
2019-05-22T19:10:37.428Z,3.62
2019-05-22T19:13:07.958Z,1.90
2019-05-22T19:15:38.982Z,2.72
2019-05-22T19:18:09.509Z,1.45
2019-05-22T19:20:39.931Z,3.47
2019-05-22T19:23:10.844Z,2.25
2019-05-22T19:25:41.263Z,5.00
2019-05-22T19:28:11.706Z,5.30
2019-05-22T19:30:42.115Z,4.70
2019-05-22T19:33:15.014Z,2.83
2019-05-22T19:35:45.224Z,2.85
2019-05-22T19:38:15.654Z,2.55
2019-05-22T19:40:46.129Z,6.67
2019-05-22T19:43:17.676Z,2.35
2019-05-22T19:45:48.101Z,5.08
2019-05-22T19:48:18.926Z,3.35
2019-05-22T19:50:49.966Z,3.33
2019-05-22T19:53:22.085Z,3.25
2019-05-22T19:55:53.647Z,5.62
2019-05-22T19:58:24.688Z,2.33
2019-05-22T20:00:55.692Z,1.70
2019-05-22T20:03:26.346Z,2.80
2019-05-22T20:05:56.819Z,4.00
2019-05-22T20:08:27.491Z,2.90
2019-05-22T20:10:57.977Z,2.35
2019-05-22T20:13:28.638Z,2.33
2019-05-22T20:15:59.393Z,10.45
2019-05-22T20:18:29.826Z,8.70
2019-05-22T20:21:01.373Z,4.62
2019-05-22T20:23:36.314Z,7.25
2019-05-22T20:26:05.105Z,6.55
2019-05-22T20:28:37.032Z,4.83
2019-05-22T20:31:08.531Z,10.30
2019-05-22T20:33:38.875Z,9.90
2019-05-22T20:36:12.494Z,7.50
2019-05-22T20:38:43.088Z,6.35
2019-05-22T20:41:14.918Z,9.10
2019-05-22T20:43:47.024Z,8.35
2019-05-22T20:46:21.711Z,6.28
2019-05-22T20:48:52.322Z,5.90
2019-05-22T20:51:25.367Z,7.40
2019-05-22T20:53:57.900Z,7.45
2019-05-22T20:56:29.774Z,7.83
2019-05-22T20:59:01.458Z,5.60
2019-05-22T21:01:33.423Z,3.70
2019-05-22T21:04:06.617Z,4.67
2019-05-22T21:06:48.767Z,5.22
2019-05-22T21:09:20.784Z,7.53
2019-05-22T21:11:52.090Z,5.65
2019-05-22T21:14:24.370Z,12.98
2019-05-22T21:16:54.812Z,14.07
2019-05-22T21:19:27.123Z,9.13
2019-05-22T21:21:59.125Z,7.00
2019-05-22T21:24:29.790Z,3.77
2019-05-22T21:27:00.222Z,4.78
2019-05-22T21:29:30.887Z,5.60
2019-05-22T21:32:01.838Z,8.33
2019-05-22T21:34:32.200Z,6.62
2019-05-22T21:37:02.666Z,3.62
2019-05-22T21:39:33.968Z,4.90
2019-05-22T21:42:04.919Z,8.20
2019-05-22T21:44:35.343Z,4.20
2019-05-22T21:47:07.490Z,6.33
2019-05-22T21:49:38.892Z,2.17
2019-05-22T21:52:12.215Z,5.85
2019-05-22T21:54:42.605Z,4.35
2019-05-22T21:57:14.549Z,9.30
2019-05-22T21:59:46.321Z,4.35
2019-05-22T22:02:26.960Z,6.95
2019-05-22T22:04:58.173Z,4.40
2019-05-22T22:07:29.665Z,4.55
2019-05-22T22:10:00.796Z,4.47
2019-05-22T22:12:31.643Z,4.80
2019-05-22T22:15:02.766Z,4.28
2019-05-22T22:17:34.946Z,9.18
2019-05-22T22:20:07.136Z,5.90
2019-05-22T22:22:37.615Z,4.60
2019-05-22T22:25:10.519Z,4.15
2019-05-22T22:27:41.747Z,5.30
2019-05-22T22:30:25.503Z,5.65
2019-05-22T22:32:56.908Z,5.30
2019-05-22T22:35:27.400Z,7.17
2019-05-22T22:37:59.019Z,6.33
2019-05-22T22:40:32.572Z,7.75
2019-05-22T22:43:06.186Z,7.97
2019-05-22T22:45:43.844Z,9.95
2019-05-22T22:48:17.380Z,5.50
2019-05-22T22:50:48.718Z,5.00
2019-05-22T22:53:20.406Z,6.37
2019-05-22T22:55:52.123Z,5.67
2019-05-22T22:58:23.327Z,10.03
2019-05-22T23:00:54.915Z,7.40
2019-05-22T23:03:28.934Z,8.30
2019-05-22T23:06:01.051Z,11.55
2019-05-22T23:08:34.940Z,12.30
2019-05-22T23:11:07.002Z,8.40
2019-05-22T23:13:40.798Z,8.50
2019-05-22T23:16:11.795Z,8.45
2019-05-22T23:19:38.364Z,8.20
2019-05-22T23:23:02.395Z,8.18
2019-05-22T23:25:33.513Z,6.25
2019-05-22T23:28:04.707Z,6.58
2019-05-22T23:30:35.114Z,7.95
2019-05-22T23:33:06.758Z,5.65
2019-05-22T23:35:37.565Z,7.47
2019-05-22T23:38:09.286Z,5.85
2019-05-22T23:40:39.907Z,6.05
2019-05-22T23:43:12.036Z,4.65
2019-05-22T23:45:42.490Z,6.60
2019-05-22T23:48:16.605Z,7.15
2019-05-22T23:50:48.714Z,5.60
2019-05-22T23:53:21.127Z,5.53
2019-05-22T23:55:51.639Z,8.40
2019-05-22T23:58:25.769Z,5.37
